Time;durP1;ratioP1;P1;durP2;ratioP2;P2;SDS_P1;SDS_P2;PMS_P1;PMS_P2;Temp;Humidity;BMP_temperature;BMP_pressure;BME280_temperature;BME280_humidity;BME280_pressure;Samples;Min_cycle;Max_cycle;Signal;HPM_P1;HPM_P2
2023/10/02 00:01:18;;;;;;;;;;;;;;;-144.99;100.00;52391.03;5020719;28;19965;-66
2023/10/02 00:03:48;;;;;;;;;;;;;;;-144.99;100.00;52399.19;5019348;28;19942;-66
2023/10/02 00:06:16;;;;;;;;;;;;;;;-144.99;100.00;52376.75;5016623;28;19961;-65
2023/10/02 00:08:43;;;;;;;;;;;;;;;-144.99;100.00;52382.88;5028071;28;20017;-66
2023/10/02 00:11:35;;;;;;;;;;;;;;;-144.99;100.00;52415.47;5026875;28;20067;-67
2023/10/02 00:14:22;;;;;;;;;;;;;;;-144.99;100.00;52376.75;5024568;28;19948;-67
2023/10/02 00:17:00;;;;;;;;;;;;;;;-144.99;100.00;52415.47;5023125;28;20035;-67
2023/10/02 00:19:28;;;;;;;;;;;;;;;-144.99;100.00;52386.94;5029348;28;20062;-68
2023/10/02 00:21:57;;;;;;;;;;;;;;;-144.99;100.00;52407.31;5019002;28;20031;-68
2023/10/02 00:24:25;;;;;;;;;;;;;;;-144.99;100.00;52407.31;5021290;28;19967;-69
2023/10/02 00:26:52;;;;;;;;;;;;;;;-144.99;100.00;52346.19;5025335;28;19949;-68
2023/10/02 00:29:19;;;;;;;;;;;;;;;-144.99;100.00;52399.19;5017772;28;19958;-69
2023/10/02 00:31:46;;;;;;;;;;;;;;;-144.99;100.00;52407.31;5018358;28;19957;-69
2023/10/02 00:34:14;;;;;;;;;;;;;;;-144.99;100.00;52399.19;5018438;28;19945;-71
2023/10/02 00:36:41;;;;;;;;;;;;;;;-144.99;100.00;52407.31;5020835;28;19946;-69
2023/10/02 00:44:51;;;;;;;;;;;;;;;-144.99;100.00;52427.72;5018800;28;20060;-67
2023/10/02 00:47:13;;;;;;;;;;;;;;;-144.99;100.00;52399.19;5018474;28;20029;-67
2023/10/02 00:49:41;;;;;;;;;;;;;;;-144.99;100.00;52407.31;5021753;28;20409;-66
2023/10/02 00:52:08;;;;;;;;;;;;;;;-144.99;100.00;52382.88;5024338;28;20394;-67
2023/10/02 00:54:34;;;;;;;;;;;;;;;-144.99;100.00;52374.72;5028431;28;19946;-65
2023/10/02 00:57:16;;;;;;;;;;;;;;;-144.99;100.00;52395.09;5025410;28;19988;-68
2023/10/02 00:59:44;;;;;;;;;;;;;;;-144.99;100.00;52413.44;5035287;28;20048;-67
2023/10/02 01:02:11;;;;;;;;;;;;;;;-144.99;100.00;52415.47;5032505;28;20454;-67
2023/10/02 01:04:38;;;;;;;;;;;;;;;-144.99;100.00;52386.94;5032124;28;20338;-67
2023/10/02 01:07:11;;;;;;;;;;;;;;;-144.99;100.00;52362.50;5033905;28;19940;-67
2023/10/02 01:09:41;;;;;;;;;;;;;;;-144.99;100.00;52395.09;5032347;28;19965;-66
2023/10/02 01:12:10;;;;;;;;;;;;;;;-144.99;100.00;52399.19;5035586;28;20359;-66
2023/10/02 01:14:50;;;;;;;;;;;;;;;-144.99;100.00;52399.19;5029736;28;19972;-68
2023/10/02 01:17:17;;;;;;;;;;;;;;;-144.99;100.00;52382.88;5034521;28;19945;-67
2023/10/02 01:19:53;;;;;;;;;;;;;;;-144.99;100.00;52397.13;5030270;28;20435;-68
2023/10/02 01:22:26;;;;;;;;;;;;;;;-144.99;100.00;52403.25;5031754;28;20042;-67
2023/10/02 01:25:06;;;;;;;;;;;;;;;-144.99;100.00;52368.59;5027979;28;19958;-67
2023/10/02 01:27:40;;;;;;;;;;;;;;;-144.99;100.00;52395.09;5024806;28;20031;-67
2023/10/02 01:30:15;;;;;;;;;;;;;;;-144.99;100.00;52378.78;5031947;28;20061;-68
2023/10/02 01:32:49;;;;;;;;;;;;;;;-144.99;100.00;52397.13;5021563;28;20408;-67
2023/10/02 01:35:29;;;;;;;;;;;;;;;-144.99;100.00;52386.94;5017342;28;20474;-67
2023/10/02 01:37:55;;;;;;;;;;;;;;;-144.99;100.00;52427.72;5018537;28;19943;-67
2023/10/02 01:40:34;;;;;;;;;;;;;;;-144.99;100.00;52370.63;5016772;28;20433;-69
2023/10/02 01:43:12;;;;;;;;;;;;;;;-144.99;100.00;52391.03;5016583;28;19950;-69
2023/10/02 01:45:42;;;;;;;;;;;;;;;-144.99;100.00;52370.63;5017090;28;20072;-67
2023/10/02 01:48:12;;;;;;;;;;;;;;;-144.99;100.00;52386.94;5018892;28;19946;-68
2023/10/02 01:50:38;;;;;;;;;;;;;;;-144.99;100.00;52403.25;5019507;28;19959;-67
2023/10/02 01:53:06;;;;;;;;;;;;;;;-144.99;100.00;52407.31;5026450;28;19959;-68
2023/10/02 01:55:35;;;;;;;;;;;;;;;-144.99;100.00;52382.88;5021356;28;19985;-67
2023/10/02 02:00:58;;;;;;;;;;;;;;;-144.99;100.00;52417.53;5082419;27;19964;-70
2023/10/02 02:03:28;;;;;;;;;;;;;;;-144.99;100.00;52391.03;5081398;28;20044;-70
2023/10/02 02:05:55;;;;;;;;;;;;;;;-144.99;100.00;52399.19;5073978;28;19960;-70
2023/10/02 02:08:24;;;;;;;;;;;;;;;-144.99;100.00;52419.56;5074982;28;20001;-71
2023/10/02 02:10:51;;;;;;;;;;;;;;;-144.99;100.00;52382.88;5075704;28;19999;-68
2023/10/02 02:13:19;;;;;;;;;;;;;;;-144.99;100.00;52393.06;5073853;28;20122;-70
2023/10/02 02:15:47;;;;;;;;;;;;;;;-144.99;100.00;52384.91;5076807;28;20411;-68
2023/10/02 02:18:15;;;;;;;;;;;;;;;-144.99;100.00;52417.53;5073513;28;20068;-68
2023/10/02 02:20:58;;;;;;;;;;;;;;;-144.99;100.00;52374.72;5072601;28;19980;-68
2023/10/02 02:23:26;;;;;;;;;;;;;;;-144.99;100.00;52399.19;5073946;28;21716;-67
2023/10/02 02:25:53;;;;;;;;;;;;;;;-144.99;100.00;52407.31;5081054;28;20437;-69
2023/10/02 02:28:19;;;;;;;;;;;;;;;-144.99;100.00;52384.91;5071559;28;19982;-68
2023/10/02 02:30:47;;;;;;;;;;;;;;;-144.99;100.00;52391.03;5079952;28;19959;-69
2023/10/02 02:33:16;;;;;;;;;;;;;;;-144.99;100.00;52415.47;5059551;22;19964;-63
2023/10/02 02:35:44;;;;;;;;;;;;;;;-144.99;100.00;52401.22;5014614;28;19965;-64
2023/10/02 02:38:15;;;;;;;;;;;;;;;-144.99;100.00;52380.84;5015800;28;19953;-64
2023/10/02 02:40:41;;;;;;;;;;;;;;;-144.99;100.00;52427.72;5014464;28;19967;-65
2023/10/02 02:43:13;;;;;;;;;;;;;;;-144.99;100.00;52366.56;5017358;28;20508;-69
2023/10/02 02:45:39;;;;;;;;;;;;;;;-144.99;100.00;52427.72;5022269;28;20017;-68
2023/10/02 02:48:08;;;;;;;;;;;;;;;-144.99;100.00;52407.31;5018474;28;19944;-69
2023/10/02 02:50:36;;;;;;;;;;;;;;;-144.99;100.00;52427.72;5018598;28;19959;-69
2023/10/02 02:53:23;;;;;;;;;;;;;;;-144.99;100.00;52384.91;5024620;28;19968;-69
2023/10/02 02:56:09;;;;;;;;;;;;;;;-144.99;100.00;52391.03;5024683;28;20395;-68
2023/10/02 02:58:37;;;;;;;;;;;;;;;-144.99;100.00;52407.31;5025755;28;20016;-69
2023/10/02 03:01:06;;;;;;;;;;;;;;;-144.99;100.00;52386.94;5026909;28;19965;-69
2023/10/02 03:03:34;;;;;;;;;;;;;;;-144.99;100.00;52419.56;5018604;28;19960;-71
2023/10/02 03:06:04;;;;;;;;;;;;;;;-144.99;100.00;52380.84;5025433;28;19950;-70
2023/10/02 03:08:37;;;;;;;;;;;;;;;-144.99;100.00;52419.56;5025467;28;20150;-70
2023/10/02 03:11:06;;;;;;;;;;;;;;;-144.99;100.00;52427.72;5029096;28;19962;-68
2023/10/02 03:13:34;;;;;;;;;;;;;;;-144.99;100.00;52391.03;5019760;28;20399;-70
2023/10/02 03:16:08;;;;;;;;;;;;;;;-144.99;100.00;52435.88;5014288;28;19940;-69
2023/10/02 03:18:36;;;;;;;;;;;;;;;-144.99;100.00;52395.09;5011292;28;19947;-69
2023/10/02 03:21:14;;;;;;;;;;;;;;;-144.99;100.00;52403.25;5011170;28;20315;-69
2023/10/02 03:23:42;;;;;;;;;;;;;;;-144.99;100.00;52399.19;5005395;28;19991;-69
2023/10/02 03:26:21;;;;;;;;;;;;;;;-144.99;100.00;52403.25;5011507;28;19948;-68
2023/10/02 03:28:48;;;;;;;;;;;;;;;-144.99;100.00;52395.09;5011043;28;19949;-68
2023/10/02 03:31:17;;;;;;;;;;;;;;;-144.99;100.00;52403.25;5017108;28;20120;-68
2023/10/02 03:33:45;;;;;;;;;;;;;;;-144.99;100.00;52399.19;5010904;28;20409;-68
2023/10/02 03:36:20;;;;;;;;;;;;;;;-144.99;100.00;52391.03;5011476;28;19956;-68
2023/10/02 03:38:48;;;;;;;;;;;;;;;-144.99;100.00;52388.97;5011723;28;20047;-68
2023/10/02 03:41:16;;;;;;;;;;;;;;;-144.99;100.00;52435.88;5015419;28;19996;-69
2023/10/02 03:43:46;;;;;;;;;;;;;;;-144.99;100.00;52427.72;5011460;28;19951;-68
2023/10/02 03:46:22;;;;;;;;;;;;;;;-144.99;100.00;52431.78;5011431;28;20034;-69
2023/10/02 03:48:58;;;;;;;;;;;;;;;-144.99;100.00;52376.75;5006123;28;20007;-67
2023/10/02 03:51:37;;;;;;;;;;;;;;;-144.99;100.00;52395.09;5009852;28;20372;-66
2023/10/02 03:54:17;;;;;;;;;;;;;;;-144.99;100.00;52435.88;5007859;28;20015;-67
2023/10/02 03:56:47;;;;;;;;;;;;;;;-144.99;100.00;52386.94;5009585;28;19980;-66
2023/10/02 03:59:15;;;;;;;;;;;;;;;-144.99;100.00;52397.13;5001520;28;19957;-67
2023/10/02 04:01:41;;;;;;;;;;;;;;;-144.99;100.00;52407.31;5008538;28;20353;-68
2023/10/02 04:04:19;;;;;;;;;;;;;;;-144.99;100.00;52431.78;5002523;28;20044;-67
2023/10/02 04:06:47;;;;;;;;;;;;;;;-144.99;100.00;52444.03;5003850;28;19986;-67
2023/10/02 04:09:21;;;;;;;;;;;;;;;-144.99;100.00;52399.19;5000350;28;19979;-65
2023/10/02 04:11:50;;;;;;;;;;;;;;;-144.99;100.00;52403.25;4998187;28;19957;-64
2023/10/02 04:14:31;;;;;;;;;;;;;;;-144.99;100.00;52435.88;4996593;28;20003;-65
2023/10/02 04:17:09;;;;;;;;;;;;;;;-144.99;100.00;52460.31;4998220;28;20041;-67
2023/10/02 04:19:35;;;;;;;;;;;;;;;-144.99;100.00;52435.88;4999431;28;19971;-67
2023/10/02 04:22:06;;;;;;;;;;;;;;;-144.99;100.00;52391.03;5003344;28;19945;-67
2023/10/02 04:24:51;;;;;;;;;;;;;;;-144.99;100.00;52391.03;5002053;28;20412;-69
2023/10/02 04:27:18;;;;;;;;;;;;;;;-144.99;100.00;52386.94;5000157;28;19950;-69
2023/10/02 04:30:21;;;;;;;;;;;;;;;-144.99;100.00;52415.47;5002532;28;20005;-68
2023/10/02 04:32:32;;;;;;;;;;;;;;;-144.99;100.00;52431.78;5009148;28;20389;-68
2023/10/02 04:34:58;;;;;;;;;;;;;;;-144.99;100.00;52423.63;5006572;28;19947;-68
2023/10/02 04:37:31;;;;;;;;;;;;;;;-144.99;100.00;52448.09;5000369;28;20050;-69
2023/10/02 04:40:14;;;;;;;;;;;;;;;-144.99;100.00;52399.19;5000603;28;20001;-68
2023/10/02 04:42:58;;;;;;;;;;;;;;;-144.99;100.00;52419.56;4997971;28;20370;-68
2023/10/02 04:45:26;;;;;;;;;;;;;;;-144.99;100.00;52439.94;4998415;28;19957;-69
2023/10/02 04:47:54;;;;;;;;;;;;;;;-144.99;100.00;52444.03;4999319;28;19996;-69
2023/10/02 04:50:36;;;;;;;;;;;;;;;-144.99;100.00;52439.94;4998263;28;20325;-66
2023/10/02 04:53:22;;;;;;;;;;;;;;;-144.99;100.00;52450.13;5000171;28;19968;-73
2023/10/02 04:55:57;;;;;;;;;;;;;;;-144.99;100.00;52429.75;5009324;28;20032;-73
2023/10/02 04:58:27;;;;;;;;;;;;;;;-144.99;100.00;52427.72;5007671;28;19951;-70
2023/10/02 05:03:51;;;;;;;;;;;;;;;-144.99;100.00;52439.94;4964957;28;20469;-69
2023/10/02 05:06:39;;;;;;;;;;;;;;;-144.99;100.00;52444.03;4995412;28;19946;-71
2023/10/02 05:09:21;;;;;;;;;;;;;;;-144.99;100.00;52395.09;5013157;28;20130;-73
2023/10/02 05:11:52;;;;;;;;;;;;;;;-144.99;100.00;52427.72;5014320;28;19945;-73
2023/10/02 05:14:26;;;;;;;;;;;;;;;-144.99;100.00;52427.72;5007971;28;19945;-72
2023/10/02 05:16:52;;;;;;;;;;;;;;;-144.99;100.00;52411.41;5013585;28;19949;-71
2023/10/02 05:19:46;;;;;;;;;;;;;;;-144.99;100.00;52448.09;5014632;28;20472;-69
2023/10/02 05:22:04;;;;;;;;;;;;;;;-144.99;100.00;52378.78;5002957;28;19941;-69
2023/10/02 05:24:34;;;;;;;;;;;;;;;-144.99;100.00;52391.03;5001899;28;20104;-69
2023/10/02 05:27:00;;;;;;;;;;;;;;;-144.99;100.00;52435.88;5017476;28;19949;-69
2023/10/02 05:29:40;;;;;;;;;;;;;;;-144.99;100.00;52439.94;5016342;28;20042;-69
2023/10/02 05:32:19;;;;;;;;;;;;;;;-144.99;100.00;52427.72;5013917;28;19953;-70
2023/10/02 05:34:58;;;;;;;;;;;;;;;-144.99;100.00;52441.97;5015678;28;19952;-69
2023/10/02 05:37:30;;;;;;;;;;;;;;;-144.99;100.00;52435.88;5008974;28;20063;-71
2023/10/02 05:40:32;;;;;;;;;;;;;;;-144.99;100.00;52403.25;5016227;28;19973;-70
2023/10/02 05:42:53;;;;;;;;;;;;;;;-144.99;100.00;52380.84;5009895;28;19956;-71
2023/10/02 05:45:37;;;;;;;;;;;;;;;-144.99;100.00;52431.78;5008851;28;19998;-70
2023/10/02 05:48:07;;;;;;;;;;;;;;;-144.99;100.00;52374.72;5003037;28;19952;-70
2023/10/02 05:50:34;;;;;;;;;;;;;;;-144.99;100.00;52407.31;5008858;28;20470;-69
2023/10/02 05:53:01;;;;;;;;;;;;;;;-144.99;100.00;52423.63;5008981;28;20029;-71
2023/10/02 05:55:54;;;;;;;;;;;;;;;-144.99;100.00;52415.47;5009873;28;20039;-69
2023/10/02 05:58:27;;;;;;;;;;;;;;;-144.99;100.00;52393.06;5010705;28;20008;-70
2023/10/02 06:00:54;;;;;;;;;;;;;;;-144.99;100.00;52415.47;5010435;28;20296;-70
2023/10/02 06:03:21;;;;;;;;;;;;;;;-144.99;100.00;52419.56;5005712;28;20353;-70
2023/10/02 06:06:10;;;;;;;;;;;;;;;-144.99;100.00;52384.91;5014219;28;20008;-70
2023/10/02 06:08:34;;;;;;;;;;;;;;;-144.99;100.00;52417.53;5018228;28;19990;-71
2023/10/02 06:11:25;;;;;;;;;;;;;;;-144.99;100.00;52448.09;5009203;28;20444;-70
2023/10/02 06:13:54;;;;;;;;;;;;;;;-144.99;100.00;52407.31;5001929;28;19952;-70
2023/10/02 06:16:23;;;;;;;;;;;;;;;-144.99;100.00;52407.31;5006004;28;19946;-70
2023/10/02 06:19:00;;;;;;;;;;;;;;;-144.99;100.00;52423.63;5009309;28;20350;-69
2023/10/02 06:21:27;;;;;;;;;;;;;;;-144.99;100.00;52393.06;5010141;28;20474;-69
2023/10/02 06:23:56;;;;;;;;;;;;;;;-144.99;100.00;52429.75;5017707;28;20082;-68
2023/10/02 06:26:29;;;;;;;;;;;;;;;-144.99;100.00;52431.78;5017465;28;20450;-69
2023/10/02 06:31:41;;;;;;;;;;;;;;;-144.99;100.00;52393.06;5011291;28;19989;-69
2023/10/02 06:34:08;;;;;;;;;;;;;;;-144.99;100.00;52401.22;5014715;28;19950;-70
2023/10/02 06:36:45;;;;;;;;;;;;;;;-144.99;100.00;52378.78;5011599;28;19949;-69
2023/10/02 06:39:13;;;;;;;;;;;;;;;-144.99;100.00;52378.78;5014539;28;19964;-70
2023/10/02 06:41:41;;;;;;;;;;;;;;;-144.99;100.00;52372.69;5009546;28;20022;-70
2023/10/02 06:44:15;;;;;;;;;;;;;;;-144.99;100.00;52393.06;5008790;28;20410;-70
2023/10/02 06:46:52;;;;;;;;;;;;;;;-144.99;100.00;52378.78;5010970;28;19949;-70
2023/10/02 06:49:20;;;;;;;;;;;;;;;-144.99;100.00;52382.88;5011437;28;19965;-69
2023/10/02 06:51:49;;;;;;;;;;;;;;;-144.99;100.00;52411.41;5017508;28;20032;-68
2023/10/02 06:54:16;;;;;;;;;;;;;;;-144.99;100.00;52395.09;5027745;28;19946;-69
2023/10/02 06:56:44;;;;;;;;;;;;;;;-144.99;100.00;52415.47;5027664;28;19975;-69
2023/10/02 06:59:11;;;;;;;;;;;;;;;-144.99;100.00;52391.03;5016393;28;19946;-70
2023/10/02 07:01:59;;;;;;;;;;;;;;;-144.99;100.00;52399.19;5038502;28;19945;-68
2023/10/02 07:04:30;;;;;;;;;;;;;;;-144.99;100.00;52399.19;5041756;28;20428;-69
2023/10/02 07:07:03;;;;;;;;;;;;;;;-144.99;100.00;52382.88;5010167;28;20029;-69
2023/10/02 07:09:34;;;;;;;;;;;;;;;-144.99;100.00;52374.72;5012052;28;19966;-69
2023/10/02 07:14:46;;;;;;;;;;;;;;;-144.99;100.00;52378.78;5014807;28;20418;-69
2023/10/02 07:17:17;;;;;;;;;;;;;;;-144.99;100.00;52378.78;5017749;28;19951;-69
2023/10/02 07:19:48;;;;;;;;;;;;;;;-144.99;100.00;52340.06;5012865;28;20006;-68
2023/10/02 07:22:16;;;;;;;;;;;;;;;-144.99;100.00;52350.25;5011619;28;19961;-70
2023/10/02 07:24:46;;;;;;;;;;;;;;;-144.99;100.00;52362.50;5011804;28;20041;-70
2023/10/02 07:27:23;;;;;;;;;;;;;;;-144.99;100.00;52374.72;5017656;28;20078;-69
2023/10/02 07:29:51;;;;;;;;;;;;;;;-144.99;100.00;52382.88;5012661;28;19975;-69
2023/10/02 07:32:18;;;;;;;;;;;;;;;-144.99;100.00;52386.94;5014541;28;19953;-69
2023/10/02 07:34:45;;;;;;;;;;;;;;;-144.99;100.00;52362.50;5017539;28;20561;-70
2023/10/02 07:37:13;;;;;;;;;;;;;;;-144.99;100.00;52386.94;5019636;28;19943;-69
2023/10/02 07:39:40;;;;;;;;;;;;;;;-144.99;100.00;52352.28;5012001;28;19960;-70
2023/10/02 07:42:10;;;;;;;;;;;;;;;-144.99;100.00;52366.56;5009413;28;20143;-70
2023/10/02 07:44:38;;;;;;;;;;;;;;;-144.99;100.00;52358.41;4992913;28;19942;-69
2023/10/02 07:47:10;;;;;;;;;;;;;;;-144.99;99.79;52342.09;5011745;28;19974;-69
2023/10/02 07:49:37;;;;;;;;;;;;;;;-144.99;99.62;52370.63;5013690;28;19964;-68
2023/10/02 07:52:04;;;;;;;;;;;;;;;-144.99;98.85;52362.50;5011090;28;20368;-71
2023/10/02 07:54:44;;;;;;;;;;;;;;;-144.99;97.60;52344.16;5008215;28;20420;-71
2023/10/02 07:57:13;;;;;;;;;;;;;;;-144.99;96.91;52342.09;5010087;28;19945;-69
2023/10/02 07:59:43;;;;;;;;;;;;;;;-144.99;96.91;52344.16;5011598;28;20011;-70
2023/10/02 08:02:22;;;;;;;;;;;;;;;-144.99;96.65;52358.41;5013002;28;19998;-70
2023/10/02 08:04:51;;;;;;;;;;;;;;;-144.99;95.33;52374.72;5019017;28;20409;-70
2023/10/02 08:07:18;;;;;;;;;;;;;;;-144.99;95.05;52317.66;5005261;28;20053;-70
2023/10/02 08:09:47;;;;;;;;;;;;;;;-144.99;96.15;52370.63;5009587;28;20493;-70
2023/10/02 08:12:29;;;;;;;;;;;;;;;-144.99;95.96;52317.66;5005709;28;19951;-69
2023/10/02 08:14:58;;;;;;;;;;;;;;;-144.99;95.02;52342.09;5012139;28;19943;-69
2023/10/02 08:17:37;;;;;;;;;;;;;;;-144.99;94.76;52338.03;5016432;28;20122;-69
2023/10/02 08:20:16;;;;;;;;;;;;;;;-144.99;93.49;52319.69;5013481;28;20302;-69
2023/10/02 08:22:44;;;;;;;;;;;;;;;-144.99;93.01;52313.56;5010870;28;20010;-69
2023/10/02 08:25:13;;;;;;;;;;;;;;;-144.99;92.56;52317.66;5005706;28;19946;-69
2023/10/02 08:27:39;;;;;;;;;;;;;;;-144.99;92.35;52354.34;5015888;28;20418;-69
2023/10/02 08:30:18;;;;;;;;;;;;;;;-144.99;91.71;52358.41;5011217;28;20004;-69
2023/10/02 08:32:45;;;;;;;;;;;;;;;-144.99;92.75;52362.50;5024762;22;20332;-73
2023/10/02 08:35:13;;;;;;;;;;;;;;;-144.99;93.72;52342.09;5027245;28;19988;-72
2023/10/02 08:37:40;;;;;;;;;;;;;;;-144.99;94.34;52409.38;5036307;28;20391;-72
2023/10/02 08:40:08;;;;;;;;;;;;;;;-144.99;95.49;52354.34;5025735;28;19981;-73
2023/10/02 08:42:35;;;;;;;;;;;;;;;-144.99;96.44;52333.94;5028963;28;20075;-72
2023/10/02 08:45:01;;;;;;;;;;;;;;;-144.99;95.70;52358.41;5023711;28;20040;-72
2023/10/02 08:47:29;;;;;;;;;;;;;;;-144.99;95.39;52340.06;5017748;28;20037;-72
2023/10/02 08:50:03;;;;;;;;;;;;;;;-144.99;95.26;52329.88;5022523;28;20011;-72
2023/10/02 08:52:38;;;;;;;;;;;;;;;-144.99;93.75;52350.25;5020344;28;19983;-72
2023/10/02 08:55:33;;;;;;;;;;;;;;;-144.99;92.57;52313.56;5041060;28;19970;-72
2023/10/02 08:58:15;;;;;;;;;;;;;;;-144.99;91.09;52348.22;5016238;28;19941;-72
2023/10/02 09:01:01;;;;;;;;;;;;;;;-144.99;90.29;52289.13;5017442;28;19953;-73
2023/10/02 09:03:29;;;;;;;;;;;;;;;-144.99;88.53;52297.25;5018883;28;20513;-73
2023/10/02 09:06:24;;;;;;;;;;;;;;;-144.99;88.05;52268.72;5023531;28;19941;-72
2023/10/02 09:09:13;;;;;;;;;;;;;;;-144.99;85.86;52285.03;5019000;28;20388;-73
2023/10/02 09:11:34;;;;;;;;;;;;;;;-144.99;85.77;52313.56;5021181;28;19949;-73
2023/10/02 09:14:16;;;;;;;;;;;;;;;-144.99;85.86;52268.72;5015964;28;20199;-72
2023/10/02 09:16:45;;;;;;;;;;;;;;;-144.99;84.81;52313.56;5019575;28;19948;-73
2023/10/02 09:19:34;;;;;;;;;;;;;;;-144.99;84.18;52278.91;5030211;28;19943;-73
2023/10/02 09:22:07;;;;;;;;;;;;;;;-144.99;82.10;52293.19;5020386;28;20019;-73
2023/10/02 09:24:35;;;;;;;;;;;;;;;-144.99;80.80;52248.34;5028847;28;20021;-73
2023/10/02 09:27:20;;;;;;;;;;;;;;;-144.99;79.94;52276.88;5029946;28;19951;-73
2023/10/02 09:29:47;;;;;;;;;;;;;;;-144.99;79.82;52264.66;5025056;28;19946;-73
2023/10/02 09:32:21;;;;;;;;;;;;;;;-144.99;80.37;52293.19;5034306;28;19947;-73
2023/10/02 09:37:35;;;;;;;;;;;;;;;-144.99;80.55;52280.97;5022168;28;20033;-73
2023/10/02 09:40:14;;;;;;;;;;;;;;;-144.99;80.23;52260.56;5016184;28;20047;-72
2023/10/02 09:42:45;;;;;;;;;;;;;;;-144.99;79.78;52289.13;5018412;28;20000;-72
2023/10/02 09:45:15;;;;;;;;;;;;;;;-144.99;79.58;52280.97;5024046;28;19943;-75
2023/10/02 09:47:42;;;;;;;;;;;;;;;-144.99;80.06;52311.53;5016804;28;20884;-73
2023/10/02 09:50:13;;;;;;;;;;;;;;;-144.99;79.85;52244.28;5022058;28;19943;-71
2023/10/02 09:52:47;;;;;;;;;;;;;;;-144.99;78.73;52285.03;5014814;28;19946;-73
2023/10/02 09:55:17;;;;;;;;;;;;;;;-144.99;79.67;52280.97;5020228;28;19984;-73
2023/10/02 09:57:50;;;;;;;;;;;;;;;-144.99;79.93;52270.78;5020107;28;19968;-72
2023/10/02 10:03:16;;;;;;;;;;;;;;;-144.99;81.03;52268.72;5003838;28;19973;-73
2023/10/02 10:06:05;;;;;;;;;;;;;;;-144.99;80.73;52305.41;5021210;28;20045;-73
2023/10/02 10:09:20;;;;;;;;;;;;;;;-144.99;80.97;52293.19;5017172;28;20054;-72
2023/10/02 10:12:17;;;;;;;;;;;;;;;-144.99;79.72;52230.00;5041879;28;20434;-72
2023/10/02 10:14:37;;;;;;;;;;;;;;;-144.99;78.14;52232.03;5013328;28;19964;-72
2023/10/02 10:17:03;;;;;;;;;;;;;;;-144.99;76.19;52219.81;5011839;28;20055;-72
2023/10/02 10:19:33;;;;;;;;;;;;;;;-144.99;74.76;52225.94;5019482;28;19944;-72
2023/10/02 10:22:00;;;;;;;;;;;;;;;-144.99;74.59;52215.75;5018703;28;19994;-73
2023/10/02 10:24:51;;;;;;;;;;;;;;;-144.99;73.37;52242.22;5022299;28;19965;-71
2023/10/02 10:27:31;;;;;;;;;;;;;;;-144.99;73.79;52248.34;5025545;28;20081;-71
2023/10/02 10:30:10;;;;;;;;;;;;;;;-144.99;74.50;52238.16;5015728;28;19953;-73
2023/10/02 10:32:36;;;;;;;;;;;;;;;-144.99;76.58;52256.50;5022399;28;20401;-72
2023/10/02 10:37:47;;;;;;;;;;;;;;;-144.99;77.57;52268.72;5021837;28;19951;-72
2023/10/02 10:40:43;;;;;;;;;;;;;;;-144.99;76.84;52260.56;5019389;28;19947;-72
2023/10/02 10:43:12;;;;;;;;;;;;;;;-144.99;76.68;52309.50;5017359;28;19984;-73
2023/10/02 10:45:41;;;;;;;;;;;;;;;-144.99;76.15;52252.44;5025411;28;19937;-73
2023/10/02 10:48:19;;;;;;;;;;;;;;;-144.99;75.21;52179.06;5033624;28;20001;-73
2023/10/02 10:50:56;;;;;;;;;;;;;;;-144.99;72.19;52168.84;5039512;28;20439;-73
2023/10/02 10:53:28;;;;;;;;;;;;;;;-144.99;70.55;52183.13;5025566;28;20045;-73
2023/10/02 10:56:03;;;;;;;;;;;;;;;-144.99;70.71;52223.88;5021723;28;19939;-74
2023/10/02 10:58:34;;;;;;;;;;;;;;;-144.99;71.08;52236.13;5024676;28;19942;-71
2023/10/02 11:01:02;;;;;;;;;;;;;;;-144.99;72.66;52248.34;5013349;28;19950;-71
2023/10/02 11:03:30;;;;;;;;;;;;;;;-144.99;72.64;52264.66;5021627;28;20522;-73
2023/10/02 11:06:01;;;;;;;;;;;;;;;-144.99;73.66;52285.03;5026859;28;19945;-74
2023/10/02 11:08:30;;;;;;;;;;;;;;;-144.99;75.22;52280.97;5022376;28;20480;-72
2023/10/02 11:11:04;;;;;;;;;;;;;;;-144.99;75.84;52278.91;5021360;28;19949;-73
2023/10/02 11:13:50;;;;;;;;;;;;;;;-144.99;73.58;52240.19;5016926;28;20049;-73
2023/10/02 11:16:23;;;;;;;;;;;;;;;-144.99;73.05;52280.97;5029208;28;19945;-73
2023/10/02 11:19:10;;;;;;;;;;;;;;;-144.99;73.54;52270.78;5028994;28;20318;-73
2023/10/02 11:21:45;;;;;;;;;;;;;;;-144.99;74.37;52295.22;5024977;28;19964;-72
2023/10/02 11:24:21;;;;;;;;;;;;;;;-144.99;74.91;52268.72;5018717;28;20003;-73
2023/10/02 11:26:48;;;;;;;;;;;;;;;-144.99;76.18;52278.91;5028156;28;20421;-73
2023/10/02 11:29:20;;;;;;;;;;;;;;;-144.99;76.97;52244.28;5021863;28;19940;-73
2023/10/02 11:32:18;;;;;;;;;;;;;;;-144.99;76.14;52297.25;5025196;28;19943;-74
2023/10/02 11:34:44;;;;;;;;;;;;;;;-144.99;76.87;52305.41;5012729;28;20077;-73
2023/10/02 11:37:12;;;;;;;;;;;;;;;-144.99;77.10;52264.66;5024483;28;20065;-73
2023/10/02 11:39:38;;;;;;;;;;;;;;;-144.99;78.42;52280.97;5018542;28;20026;-73
2023/10/02 11:42:06;;;;;;;;;;;;;;;-144.99;76.71;52272.81;5018539;28;20049;-73
2023/10/02 11:44:32;;;;;;;;;;;;;;;-144.99;75.12;52258.53;5026911;28;20014;-73
2023/10/02 11:47:00;;;;;;;;;;;;;;;-144.99;75.54;52268.72;5026116;28;19943;-72
2023/10/02 11:49:29;;;;;;;;;;;;;;;-144.99;77.09;52315.59;5022936;28;19976;-72
2023/10/02 11:52:00;;;;;;;;;;;;;;;-144.99;78.31;52315.59;5020965;28;19941;-72
2023/10/02 11:54:26;;;;;;;;;;;;;;;-144.99;78.63;52268.72;5016440;28;20441;-73
2023/10/02 11:56:53;;;;;;;;;;;;;;;-144.99;78.22;52307.47;5002298;28;19977;-72
2023/10/02 11:59:19;;;;;;;;;;;;;;;-144.99;78.86;52285.03;5017771;28;19990;-73
2023/10/02 12:01:47;;;;;;;;;;;;;;;-144.99;80.12;52293.19;5025779;28;20023;-73
2023/10/02 12:04:15;;;;;;;;;;;;;;;-144.99;81.61;52354.34;5021590;28;19966;-72
2023/10/02 12:06:42;;;;;;;;;;;;;;;-144.99;82.26;52342.09;5029586;28;19940;-73
2023/10/02 12:09:17;;;;;;;;;;;;;;;-144.99;83.35;52350.25;5035192;28;19952;-73
2023/10/02 12:11:44;;;;;;;;;;;;;;;-144.99;83.61;52342.09;5040943;28;19943;-72
2023/10/02 12:14:11;;;;;;;;;;;;;;;-144.99;84.71;52329.88;5038687;28;19989;-73
2023/10/02 12:16:38;;;;;;;;;;;;;;;-144.99;84.72;52338.03;5041523;28;19951;-71
2023/10/02 12:19:06;;;;;;;;;;;;;;;-144.99;84.95;52315.59;5043416;28;19950;-73
2023/10/02 12:21:34;;;;;;;;;;;;;;;-144.99;84.56;52299.31;5036562;28;19977;-72
2023/10/02 12:24:00;;;;;;;;;;;;;;;-144.99;84.38;52338.03;5042565;28;19962;-71
2023/10/02 12:26:28;;;;;;;;;;;;;;;-144.99;84.38;52333.94;5045613;28;19930;-72
2023/10/02 12:28:55;;;;;;;;;;;;;;;-144.99;84.77;52283.00;5042768;28;19961;-72
2023/10/02 12:31:22;;;;;;;;;;;;;;;-144.99;82.71;52154.59;5039449;28;19946;-72
2023/10/02 12:33:52;;;;;;;;;;;;;;;-144.99;77.13;52162.75;5039633;28;19963;-73
2023/10/02 12:36:19;;;;;;;;;;;;;;;-144.99;73.40;52146.44;5038314;28;20013;-72
2023/10/02 12:38:48;;;;;;;;;;;;;;;-144.99;71.37;52121.97;5041961;28;19949;-72
2023/10/02 12:41:15;;;;;;;;;;;;;;;-144.99;69.30;52101.59;5039077;28;19934;-72
2023/10/02 12:43:43;;;;;;;;;;;;;;;-144.99;66.73;52081.22;5046396;28;19979;-73
2023/10/02 12:46:09;;;;;;;;;;;;;;;-144.99;66.57;52069.00;5041064;28;19943;-73
2023/10/02 12:48:36;;;;;;;;;;;;;;;-144.99;65.78;52069.00;5038547;28;19941;-72
2023/10/02 12:51:06;;;;;;;;;;;;;;;-144.99;64.68;52170.91;5044131;28;19943;-73
2023/10/02 12:53:32;;;;;;;;;;;;;;;-144.99;67.09;52248.34;5045412;28;20033;-72
2023/10/02 12:56:00;;;;;;;;;;;;;;;-144.99;69.96;52264.66;5029479;28;20013;-72
2023/10/02 12:58:27;;;;;;;;;;;;;;;-144.99;71.88;52276.88;5033709;28;20009;-72
2023/10/02 13:00:54;;;;;;;;;;;;;;;-144.99;74.42;52285.03;5031303;28;19946;-72
2023/10/02 13:03:20;;;;;;;;;;;;;;;-144.99;76.63;52317.66;5025923;28;19966;-72
2023/10/02 13:05:47;;;;;;;;;;;;;;;-144.99;78.63;52297.25;5041332;28;20008;-73
2023/10/02 13:08:13;;;;;;;;;;;;;;;-144.99;80.61;52342.09;5041863;28;19943;-71
2023/10/02 13:10:40;;;;;;;;;;;;;;;-144.99;81.49;52329.88;5040463;28;19936;-72